createdAt,value
2022-10-04T03:48:04.310Z,11.02
2022-10-04T05:37:53.320Z,10.98
2022-10-04T05:41:00.732Z,11.01
2022-10-04T05:43:35.633Z,11.05
2022-10-04T05:46:21.166Z,11.07
2022-10-04T05:48:53.532Z,11.07
2022-10-04T05:51:21.260Z,11.09
2022-10-04T05:53:49.825Z,11.07
2022-10-04T05:56:34.361Z,11.09
2022-10-04T05:59:06.742Z,11.13
2022-10-04T06:01:58.145Z,11.06
2022-10-04T06:04:42.959Z,10.99
2022-10-04T06:07:19.335Z,11.04
2022-10-04T06:10:17.694Z,11.02
2022-10-04T06:12:58.229Z,11.00
2022-10-04T06:16:02.167Z,10.96
2022-10-04T06:18:37.876Z,10.95
2022-10-04T06:21:18.887Z,10.93
2022-10-04T06:23:56.880Z,10.95
2022-10-04T06:26:28.140Z,10.99
2022-10-04T06:28:58.939Z,11.01
2022-10-04T06:31:49.752Z,10.94
2022-10-04T06:34:38.252Z,11.00
2022-10-04T06:37:20.991Z,10.81
2022-10-04T06:40:12.478Z,11.09
2022-10-04T06:42:51.515Z,11.12
2022-10-04T06:45:51.593Z,11.21
2022-10-04T06:49:09.684Z,11.18
2022-10-04T06:52:17.221Z,11.31
2022-10-04T06:55:08.707Z,11.40
2022-10-04T06:58:02.391Z,11.45
2022-10-04T07:00:56.632Z,11.51
2022-10-04T07:03:51.238Z,11.56
2022-10-04T07:06:27.336Z,11.76
2022-10-04T07:08:59.516Z,11.75
2022-10-04T07:11:32.906Z,11.84
2022-10-04T07:14:05.337Z,11.87
2022-10-04T07:16:40.375Z,11.76
2022-10-04T07:19:19.026Z,11.90
2022-10-04T07:22:00.649Z,11.94
2022-10-04T07:24:42.514Z,12.01
2022-10-04T07:27:14.226Z,12.24
2022-10-04T07:29:42.540Z,12.22
2022-10-04T07:32:36.015Z,12.45
2022-10-04T07:35:14.343Z,12.63
2022-10-04T07:38:10.876Z,12.74
2022-10-04T07:40:38.984Z,12.95
2022-10-04T07:43:09.156Z,13.15
2022-10-04T07:45:39.914Z,13.25
2022-10-04T07:48:09.359Z,13.47
2022-10-04T07:50:42.065Z,13.31
2022-10-04T07:53:24.285Z,13.30
2022-10-04T07:55:57.439Z,13.41
2022-10-04T07:58:35.285Z,13.60
2022-10-04T08:01:11.081Z,13.55
2022-10-04T08:03:57.264Z,13.57
2022-10-04T08:06:39.847Z,13.48
2022-10-04T08:09:21.230Z,13.48
2022-10-04T08:12:02.691Z,13.63
2022-10-04T08:14:36.130Z,13.87
2022-10-04T08:17:15.815Z,13.90
2022-10-04T08:20:01.304Z,14.07
2022-10-04T08:22:35.145Z,14.12
2022-10-04T08:25:04.773Z,14.33
2022-10-04T08:28:06.199Z,14.48
2022-10-04T08:31:07.072Z,14.40
2022-10-04T08:34:11.772Z,14.50
2022-10-04T08:36:59.708Z,14.42
2022-10-04T08:39:52.433Z,14.70
2022-10-04T08:42:44.232Z,14.65
2022-10-04T08:45:43.758Z,14.77
2022-10-04T08:48:22.538Z,15.11
2022-10-04T08:51:04.741Z,15.04
2022-10-04T08:53:52.415Z,15.43
2022-10-04T08:56:31.227Z,15.48
2022-10-04T08:59:42.161Z,15.66
2022-10-04T09:02:28.549Z,15.91
2022-10-04T09:05:29.071Z,15.99
2022-10-04T09:08:22.707Z,16.05
2022-10-04T09:11:22.801Z,15.76
2022-10-04T09:14:29.083Z,16.12
2022-10-04T09:17:22.656Z,16.20
2022-10-04T09:20:36.618Z,16.46
2022-10-04T09:23:33.355Z,16.59
2022-10-04T09:26:24.684Z,16.92
2022-10-04T09:29:19.057Z,17.08
2022-10-04T09:32:00.619Z,16.91
2022-10-04T09:34:37.211Z,17.35
2022-10-04T09:37:22.567Z,17.79
2022-10-04T09:39:58.989Z,17.82
2022-10-04T09:42:46.733Z,17.96
2022-10-04T09:45:55.625Z,17.71
2022-10-04T09:48:53.448Z,17.64
2022-10-04T09:51:57.151Z,17.96
2022-10-04T09:55:05.001Z,17.55
2022-10-04T09:58:01.838Z,17.60
2022-10-04T10:00:47.626Z,17.52
2022-10-04T10:03:43.715Z,17.41
2022-10-04T10:06:22.193Z,17.74
2022-10-04T10:09:07.491Z,17.71
2022-10-04T10:12:12.884Z,17.11
2022-10-04T10:15:00.940Z,16.87
2022-10-04T10:17:49.798Z,16.54
2022-10-04T10:20:53.756Z,16.52
2022-10-04T10:23:47.712Z,16.33
2022-10-04T10:26:48.773Z,16.50
2022-10-04T10:29:49.296Z,16.89
2022-10-04T10:32:58.722Z,16.78
2022-10-04T10:35:46.856Z,16.99
2022-10-04T10:38:24.496Z,17.20
2022-10-04T10:41:36.027Z,17.07
2022-10-04T10:44:11.560Z,17.14
2022-10-04T10:46:45.769Z,17.33
2022-10-04T10:49:24.560Z,17.57
2022-10-04T10:52:22.721Z,17.52
2022-10-04T10:54:58.691Z,17.42
2022-10-04T10:58:02.348Z,17.50
2022-10-04T11:01:02.206Z,17.26
2022-10-04T11:04:00.639Z,17.39
2022-10-04T11:07:01.759Z,17.34
2022-10-04T11:09:37.476Z,17.44
2022-10-04T11:12:25.556Z,17.63
2022-10-04T11:15:16.127Z,17.77
2022-10-04T11:18:11.794Z,17.79
2022-10-04T11:20:51.794Z,17.74
2022-10-04T11:23:29.140Z,18.00
2022-10-04T11:26:26.699Z,17.99
2022-10-04T11:29:32.878Z,17.51
2022-10-04T11:32:02.376Z,17.68
2022-10-04T11:35:07.733Z,17.70
2022-10-04T11:37:43.581Z,17.73
2022-10-04T11:40:28.943Z,17.70
2022-10-04T11:43:21.676Z,17.88
2022-10-04T11:46:08.495Z,18.27
2022-10-04T11:49:28.959Z,18.17
2022-10-04T11:52:02.842Z,18.41
2022-10-04T11:55:01.664Z,18.18
2022-10-04T11:57:38.666Z,18.10
2022-10-04T12:00:15.956Z,17.95
2022-10-04T12:03:02.608Z,18.06
2022-10-04T12:05:40.712Z,17.73
2022-10-04T12:08:22.739Z,18.00
2022-10-04T12:11:04.428Z,17.76
2022-10-04T12:13:38.168Z,17.86
2022-10-04T12:16:29.803Z,17.82
2022-10-04T12:19:20.847Z,17.73
2022-10-04T12:25:26.877Z,17.73
2022-10-04T12:28:18.646Z,17.71
2022-10-04T12:31:06.780Z,17.85
2022-10-04T12:33:34.408Z,17.82
2022-10-04T12:36:19.366Z,17.99
2022-10-04T12:39:15.987Z,17.93
2022-10-04T12:41:45.889Z,18.02
2022-10-04T12:44:27.057Z,18.09
2022-10-04T12:46:56.381Z,18.25
2022-10-04T12:49:41.123Z,18.13
2022-10-04T12:52:15.590Z,18.27
2022-10-04T12:54:45.083Z,18.11
2022-10-04T12:57:47.559Z,18.37
2022-10-04T13:00:24.929Z,18.16
2022-10-04T13:03:18.940Z,18.34
2022-10-04T13:06:00.050Z,18.47
2022-10-04T13:08:26.442Z,18.68
2022-10-04T13:11:24.591Z,18.93
2022-10-04T13:13:50.929Z,19.16
2022-10-04T13:19:50.266Z,19.17
2022-10-04T13:22:56.829Z,19.17
2022-10-04T13:25:48.096Z,19.13
2022-10-04T13:28:23.614Z,19.29
2022-10-04T13:31:04.859Z,19.42
2022-10-04T13:33:48.693Z,19.53
2022-10-04T13:36:44.690Z,19.60
2022-10-04T13:39:17.436Z,19.93
2022-10-04T13:42:16.307Z,20.11
2022-10-04T13:45:01.649Z,20.54
2022-10-04T13:47:51.677Z,21.07
2022-10-04T13:50:24.515Z,21.38
2022-10-04T13:53:27.924Z,22.02
2022-10-04T13:56:22.944Z,22.09
2022-10-04T13:59:17.287Z,21.83
2022-10-04T14:02:21.483Z,22.16
2022-10-04T14:05:22.603Z,21.98
2022-10-04T14:08:05.366Z,22.45
2022-10-04T14:10:48.198Z,22.49
2022-10-04T14:13:42.986Z,22.39
2022-10-04T14:16:34.409Z,22.46
2022-10-04T14:19:41.717Z,22.71
2022-10-04T14:22:11.716Z,22.64
2022-10-04T14:25:22.754Z,22.84
2022-10-04T14:28:17.261Z,22.53
2022-10-04T14:30:55.668Z,23.61
2022-10-04T14:33:29.592Z,24.32
2022-10-04T14:36:23.460Z,23.87
2022-10-04T14:39:14.101Z,24.60
2022-10-04T14:42:05.417Z,24.89
2022-10-04T14:44:53.265Z,25.07
2022-10-04T14:47:19.566Z,23.63
2022-10-04T14:50:21.877Z,23.56
2022-10-04T14:53:08.731Z,24.10
2022-10-04T14:55:57.759Z,24.57
2022-10-04T14:58:48.549Z,23.91
2022-10-04T15:01:20.927Z,23.18
2022-10-04T15:04:11.528Z,23.62
2022-10-04T15:06:43.479Z,23.36
2022-10-04T15:09:42.307Z,22.93
2022-10-04T15:13:09.979Z,22.16
2022-10-04T15:15:54.867Z,21.77
2022-10-04T15:18:39.565Z,21.49
2022-10-04T15:21:32.509Z,21.29
2022-10-04T15:24:44.409Z,20.76
2022-10-04T15:27:32.774Z,20.74
2022-10-04T15:30:20.202Z,20.33
2022-10-04T15:32:53.461Z,20.43
2022-10-04T15:35:35.022Z,20.13
2022-10-04T15:38:26.203Z,20.02
2022-10-04T15:40:58.613Z,20.08
2022-10-04T15:43:31.353Z,19.87
2022-10-04T15:46:29.010Z,19.84
2022-10-04T15:49:10.523Z,19.74
2022-10-04T15:51:46.513Z,19.71
2022-10-04T15:54:37.637Z,19.69
2022-10-04T15:57:45.706Z,19.49
2022-10-04T16:00:15.254Z,19.56
2022-10-04T16:02:58.991Z,19.18
2022-10-04T16:05:49.077Z,19.28
2022-10-04T16:08:23.494Z,19.27
2022-10-04T16:11:25.419Z,19.27
2022-10-04T16:13:51.788Z,19.36
2022-10-04T16:16:19.246Z,19.34
2022-10-04T16:18:57.605Z,19.28
2022-10-04T16:21:42.481Z,18.96
2022-10-04T16:24:18.160Z,18.98
2022-10-04T16:26:44.801Z,18.51
2022-10-04T16:29:16.550Z,18.75
2022-10-04T16:31:55.144Z,18.72
2022-10-04T16:34:29.332Z,18.75
2022-10-04T16:37:14.126Z,18.56
2022-10-04T16:40:05.979Z,18.34
2022-10-04T16:42:44.788Z,18.33
2022-10-04T16:45:11.788Z,18.26
2022-10-04T16:47:47.470Z,18.26
2022-10-04T16:50:14.321Z,18.30
2022-10-04T16:52:59.333Z,18.10
2022-10-04T16:55:42.104Z,18.06
2022-10-04T16:58:26.965Z,18.05
2022-10-04T17:01:27.445Z,18.01
2022-10-04T17:03:57.242Z,17.79
2022-10-04T17:06:48.839Z,18.03
2022-10-04T17:09:35.468Z,18.03
2022-10-04T17:12:08.246Z,17.94
2022-10-04T17:14:57.509Z,17.83
2022-10-04T17:17:44.467Z,17.86
2022-10-04T17:20:30.932Z,17.70
2022-10-04T17:23:01.134Z,17.77
2022-10-04T17:25:38.836Z,17.85
2022-10-04T17:28:30.425Z,17.81
2022-10-04T17:31:06.041Z,17.79
2022-10-04T17:33:40.040Z,17.69
2022-10-04T17:36:09.548Z,17.76
2022-10-04T17:39:00.207Z,17.63
2022-10-04T17:42:01.166Z,17.57
2022-10-04T17:44:56.947Z,17.44
2022-10-04T17:47:57.786Z,17.58
2022-10-04T17:51:11.617Z,17.40
2022-10-04T17:53:59.268Z,17.50
2022-10-04T17:56:57.795Z,17.30
2022-10-04T17:59:30.849Z,17.44
2022-10-04T18:02:11.671Z,17.39
2022-10-04T18:04:53.374Z,17.41
2022-10-04T18:07:41.772Z,17.42
2022-10-04T18:10:57.640Z,17.41
2022-10-04T18:13:40.068Z,17.37
2022-10-04T18:16:40.561Z,17.35
2022-10-04T18:19:29.857Z,17.23
2022-10-04T18:22:04.467Z,17.31
2022-10-04T18:24:31.063Z,17.35
2022-10-04T18:27:04.885Z,17.38
2022-10-04T18:29:45.069Z,17.24
2022-10-04T18:32:35.109Z,17.27
2022-10-04T18:35:34.116Z,17.25
2022-10-04T18:38:26.942Z,17.19
2022-10-04T18:40:57.846Z,17.34
2022-10-04T18:43:26.183Z,17.38
2022-10-04T18:46:29.859Z,17.24
2022-10-04T18:49:13.736Z,17.25
2022-10-04T18:52:08.071Z,17.33
2022-10-04T18:54:36.886Z,17.08
2022-10-04T18:57:33.445Z,17.07
2022-10-04T19:00:29.931Z,17.19
2022-10-04T19:03:33.982Z,17.14
2022-10-04T19:06:13.045Z,17.17
2022-10-04T19:09:01.612Z,17.19
2022-10-04T19:11:34.413Z,17.25
2022-10-04T19:14:17.873Z,17.22
2022-10-04T19:17:01.862Z,17.20
2022-10-04T19:19:42.731Z,17.08
2022-10-04T19:22:28.902Z,17.24
2022-10-04T19:25:06.823Z,17.08
2022-10-04T19:27:38.790Z,17.07
2022-10-04T19:30:22.163Z,17.20
2022-10-04T19:33:17.568Z,17.12
2022-10-04T19:35:56.346Z,17.20
2022-10-04T19:38:30.564Z,17.03
2022-10-04T19:41:28.395Z,16.92
2022-10-04T19:44:08.719Z,17.00
2022-10-04T19:47:04.596Z,17.12
2022-10-04T19:50:26.948Z,16.95
2022-10-04T19:53:15.359Z,16.86
2022-10-04T19:55:56.232Z,16.88
2022-10-04T19:58:37.979Z,17.07
2022-10-04T20:01:16.591Z,16.80
2022-10-04T20:03:43.483Z,17.05
2022-10-04T20:06:10.660Z,17.13
2022-10-04T20:09:02.691Z,16.79
2022-10-04T20:11:41.969Z,16.96
2022-10-04T20:14:17.385Z,16.96
2022-10-04T20:16:46.778Z,17.03
2022-10-04T20:19:28.807Z,16.86
2022-10-04T20:21:55.752Z,16.85
2022-10-04T20:24:49.941Z,16.85
2022-10-04T20:27:26.381Z,16.93
2022-10-04T20:29:52.685Z,16.99
2022-10-04T20:32:34.504Z,16.82
2022-10-04T20:35:02.517Z,16.74
2022-10-04T20:37:44.035Z,16.85
2022-10-04T20:40:18.292Z,16.78
2022-10-04T20:42:44.848Z,16.68
2022-10-04T20:45:11.161Z,16.84
2022-10-04T20:47:52.653Z,16.79
2022-10-04T20:50:22.269Z,16.57
2022-10-04T20:52:50.071Z,16.64
2022-10-04T20:55:28.458Z,16.79
2022-10-04T20:57:58.294Z,16.72
2022-10-04T21:00:26.016Z,16.72
2022-10-04T21:03:16.480Z,16.60
2022-10-04T21:05:43.872Z,16.61
2022-10-04T21:08:26.930Z,16.56
2022-10-04T21:11:06.738Z,16.74
2022-10-04T21:13:49.271Z,16.78
2022-10-04T21:16:43.436Z,16.66
2022-10-04T21:19:29.837Z,16.71
2022-10-04T21:21:57.212Z,16.69
2022-10-04T21:24:57.086Z,16.81
2022-10-04T21:27:37.355Z,16.69
2022-10-04T21:30:12.805Z,16.76
2022-10-04T21:32:39.312Z,16.66
2022-10-04T21:35:07.066Z,16.84
2022-10-04T21:37:34.009Z,16.70
2022-10-04T21:40:00.596Z,16.61
2022-10-04T21:42:27.085Z,16.87
2022-10-04T21:44:53.499Z,16.77
2022-10-04T21:47:22.748Z,16.58
2022-10-04T21:49:50.412Z,16.56
2022-10-04T21:52:18.052Z,16.63
2022-10-04T21:54:45.004Z,16.59
2022-10-04T21:57:11.836Z,16.71
2022-10-04T21:59:38.198Z,16.63
2022-10-04T22:02:04.916Z,16.73
2022-10-04T22:04:31.333Z,16.43
2022-10-04T22:06:57.679Z,16.51
2022-10-04T22:09:24.039Z,16.68
2022-10-04T22:11:50.415Z,16.32
2022-10-04T22:14:16.797Z,16.63
2022-10-04T22:16:44.097Z,16.53
2022-10-04T22:19:10.755Z,16.50
2022-10-04T22:21:37.126Z,16.29
2022-10-04T22:24:04.378Z,16.67
2022-10-04T22:26:31.183Z,16.62
2022-10-04T22:28:57.562Z,16.51
2022-10-04T22:31:28.743Z,16.66
2022-10-04T22:33:55.820Z,16.53
2022-10-04T22:36:39.170Z,16.63
2022-10-04T22:39:08.541Z,16.66
2022-10-04T22:41:43.355Z,16.61
2022-10-04T22:44:27.850Z,16.09
2022-10-04T22:46:58.152Z,16.46
2022-10-04T22:49:35.066Z,16.53
2022-10-04T22:52:03.404Z,16.28
2022-10-04T22:54:34.601Z,16.10
2022-10-04T22:57:01.097Z,16.18
2022-10-04T22:59:34.850Z,16.48
2022-10-04T23:02:06.485Z,16.53
2022-10-04T23:04:32.974Z,16.45
2022-10-04T23:06:59.401Z,16.31
2022-10-04T23:09:25.849Z,16.15
2022-10-04T23:11:52.231Z,16.40
2022-10-04T23:14:18.599Z,16.22
2022-10-04T23:16:45.986Z,16.44
2022-10-04T23:19:18.805Z,16.44
2022-10-04T23:21:47.062Z,16.38
2022-10-04T23:24:22.985Z,16.36
2022-10-04T23:26:53.097Z,16.23
2022-10-04T23:29:32.155Z,16.27
2022-10-04T23:31:58.634Z,16.14
2022-10-04T23:34:31.261Z,16.30
2022-10-04T23:36:57.957Z,16.03
2022-10-04T23:39:36.018Z,16.06
2022-10-04T23:42:13.213Z,16.10
2022-10-04T23:44:39.862Z,16.28
2022-10-04T23:47:11.576Z,16.27
2022-10-04T23:49:37.999Z,16.00
2022-10-04T23:52:05.708Z,15.94
2022-10-04T23:54:32.074Z,16.30
2022-10-04T23:56:58.459Z,16.14
2022-10-04T23:59:25.521Z,15.82
